createdAt,value
2018-07-26T00:00:25.676Z,28.15
2018-07-26T00:01:06.144Z,28.07
2018-07-26T00:01:46.657Z,28.17
2018-07-26T00:02:27.178Z,28.18
2018-07-26T00:03:07.643Z,28.17
2018-07-26T00:03:48.156Z,28.21
2018-07-26T00:04:28.675Z,28.21
2018-07-26T00:05:09.160Z,28.19
2018-07-26T00:05:49.669Z,28.12
2018-07-26T00:06:30.169Z,28.17
2018-07-26T00:07:10.682Z,28.21
2018-07-26T00:07:51.136Z,28.3
2018-07-26T00:08:31.645Z,28.19
2018-07-26T00:09:12.147Z,28.21
2018-07-26T00:09:52.651Z,28.24
2018-07-26T00:10:33.133Z,28.3
2018-07-26T00:11:13.759Z,28.3
2018-07-26T00:11:54.244Z,28.27
2018-07-26T00:12:34.765Z,28.3
2018-07-26T00:13:15.206Z,28.24
2018-07-26T00:13:55.694Z,28.17
2018-07-26T00:14:36.211Z,28.14
2018-07-26T00:15:16.745Z,28.17
2018-07-26T00:15:57.227Z,28.14
2018-07-26T00:16:37.734Z,28.09
2018-07-26T00:17:18.221Z,28.18
2018-07-26T00:17:58.798Z,28.04
2018-07-26T00:18:39.291Z,28.14
2018-07-26T00:19:19.774Z,28.18
2018-07-26T00:20:00.287Z,28.24
2018-07-26T00:20:40.802Z,28.15
2018-07-26T00:21:21.234Z,28.15
2018-07-26T00:22:01.761Z,28.14
2018-07-26T00:22:42.241Z,28.17
2018-07-26T00:23:22.755Z,28.18
2018-07-26T00:24:03.288Z,28.18
2018-07-26T00:24:43.746Z,28.25
2018-07-26T00:25:24.320Z,28.19
2018-07-26T00:26:04.781Z,28.22
2018-07-26T00:26:45.290Z,28.21
2018-07-26T00:27:25.758Z,28.27
2018-07-26T00:28:06.247Z,28.19
2018-07-26T00:28:46.765Z,28.19
2018-07-26T00:29:27.294Z,28.18
2018-07-26T00:30:07.837Z,28.12
2018-07-26T00:30:48.343Z,28.11
2018-07-26T00:31:28.857Z,28.12
2018-07-26T00:32:09.395Z,28.11
2018-07-26T00:32:49.932Z,28.07
2018-07-26T00:33:30.410Z,28.14
2018-07-26T00:34:10.925Z,28.12
2018-07-26T00:34:51.358Z,28.15
2018-07-26T00:35:31.877Z,28.07
2018-07-26T00:36:12.344Z,28.15
2018-07-26T00:36:52.865Z,28.09
2018-07-26T00:37:33.339Z,28.06
2018-07-26T00:38:13.798Z,28.09
2018-07-26T00:38:54.330Z,28.06
2018-07-26T00:39:34.835Z,28.03
2018-07-26T00:40:15.408Z,27.99
2018-07-26T00:40:55.871Z,27.99
2018-07-26T00:41:36.341Z,27.93
2018-07-26T00:42:16.871Z,27.84
2018-07-26T00:42:57.347Z,27.93
2018-07-26T00:43:37.918Z,27.92
2018-07-26T00:44:18.411Z,27.9
2018-07-26T00:44:58.907Z,27.85
2018-07-26T00:45:39.374Z,27.93
2018-07-26T00:46:19.861Z,27.93
2018-07-26T00:47:00.411Z,27.77
2018-07-26T00:47:40.922Z,27.85
2018-07-26T00:48:21.410Z,27.75
2018-07-26T00:49:01.936Z,27.75
2018-07-26T00:49:42.399Z,27.84
2018-07-26T00:50:22.906Z,27.72
2018-07-26T00:51:03.412Z,27.7
2018-07-26T00:51:43.935Z,27.74
2018-07-26T00:52:24.425Z,27.62
2018-07-26T00:53:04.916Z,27.67
2018-07-26T00:53:45.456Z,27.59
2018-07-26T00:54:25.950Z,27.65
2018-07-26T00:55:06.438Z,27.6
2018-07-26T00:55:46.987Z,27.6
2018-07-26T00:56:27.493Z,27.63
2018-07-26T00:57:08.002Z,27.6
2018-07-26T00:57:48.447Z,27.63
2018-07-26T00:58:28.954Z,27.6
2018-07-26T00:59:09.442Z,27.7
2018-07-26T00:59:49.962Z,27.79
2018-07-26T01:00:30.467Z,27.79
2018-07-26T01:01:11.000Z,27.74
2018-07-26T01:01:51.490Z,27.72
2018-07-26T01:02:31.972Z,27.72
2018-07-26T01:03:12.464Z,27.65
2018-07-26T01:03:53.001Z,27.72
2018-07-26T01:04:33.510Z,27.6
2018-07-26T01:05:13.952Z,27.66
2018-07-26T01:05:54.462Z,27.6
2018-07-26T01:06:34.947Z,27.54
2018-07-26T01:07:15.471Z,27.66
2018-07-26T01:07:55.938Z,27.59
2018-07-26T01:08:36.451Z,27.7
2018-07-26T01:09:16.933Z,27.7
2018-07-26T01:09:57.471Z,27.6
2018-07-26T01:10:37.960Z,27.54
2018-07-26T01:11:18.442Z,27.54
2018-07-26T01:11:58.940Z,27.63
2018-07-26T01:12:39.471Z,27.6
2018-07-26T01:13:19.978Z,27.41
2018-07-26T01:14:00.552Z,27.5
2018-07-26T01:14:41.048Z,27.5
2018-07-26T01:15:21.531Z,27.46
2018-07-26T01:16:02.063Z,27.46
2018-07-26T01:16:42.576Z,27.47
2018-07-26T01:17:23.101Z,27.51
2018-07-26T01:18:03.583Z,27.49
2018-07-26T01:18:44.083Z,27.54
2018-07-26T01:19:24.603Z,27.54
2018-07-26T01:20:05.126Z,27.55
2018-07-26T01:22:18.411Z,27.4
2018-07-26T01:22:58.914Z,27.41
2018-07-26T01:23:39.379Z,27.32
2018-07-26T01:24:19.926Z,27.41
2018-07-26T01:25:00.447Z,27.44
2018-07-26T01:25:41.028Z,27.43
2018-07-26T01:26:21.510Z,27.5
2018-07-26T01:27:02.038Z,27.49
2018-07-26T01:27:42.558Z,27.43
2018-07-26T01:28:23.056Z,27.54
2018-07-26T01:29:03.549Z,27.51
2018-07-26T01:29:44.059Z,27.41
2018-07-26T01:30:24.591Z,27.46
2018-07-26T01:31:05.067Z,27.51
2018-07-26T01:31:45.556Z,27.47
2018-07-26T01:32:26.090Z,27.49
2018-07-26T01:33:06.557Z,27.44
2018-07-26T01:33:47.019Z,27.43
2018-07-26T01:34:27.552Z,27.39
2018-07-26T01:35:08.060Z,27.46
2018-07-26T01:35:48.575Z,27.37
2018-07-26T01:36:29.006Z,27.36
2018-07-26T01:37:09.505Z,27.44
2018-07-26T01:37:50.057Z,27.34
2018-07-26T01:38:30.516Z,27.36
2018-07-26T01:39:11.006Z,27.4
2018-07-26T01:39:51.521Z,27.46
2018-07-26T01:40:31.963Z,27.47
2018-07-26T01:41:12.501Z,27.44
2018-07-26T01:41:52.963Z,27.39
2018-07-26T01:42:33.444Z,27.46
2018-07-26T01:43:13.972Z,27.46
2018-07-26T01:43:54.469Z,27.37
2018-07-26T01:44:34.972Z,27.39
2018-07-26T01:45:15.453Z,27.39
2018-07-26T01:45:56.024Z,27.28
2018-07-26T01:46:36.425Z,27.18
2018-07-26T01:47:16.921Z,27.28
2018-07-26T01:47:57.440Z,27.37
2018-07-26T01:48:37.961Z,27.25
2018-07-26T01:49:18.497Z,27.22
2018-07-26T01:49:58.974Z,27.34
2018-07-26T01:50:39.493Z,27.32
2018-07-26T01:51:20.052Z,27.24
2018-07-26T01:52:00.493Z,27.13
2018-07-26T01:52:41.017Z,27.25
2018-07-26T01:53:21.465Z,27.27
2018-07-26T01:54:01.938Z,27.27
2018-07-26T01:54:42.465Z,27.28
2018-07-26T01:55:22.968Z,27.21
2018-07-26T01:56:03.469Z,27.28
2018-07-26T01:56:44.000Z,27.28
2018-07-26T01:57:24.521Z,27.32
2018-07-26T01:58:04.984Z,27.28
2018-07-26T01:58:45.500Z,27.27
2018-07-26T01:59:26.012Z,27.31
2018-07-26T02:00:06.452Z,27.12
2018-07-26T02:00:46.975Z,27.19
2018-07-26T02:01:27.494Z,27.13
2018-07-26T02:02:07.966Z,27.28
2018-07-26T02:02:48.505Z,27.13
2018-07-26T02:03:28.984Z,27.17
2018-07-26T02:04:09.479Z,27.14
2018-07-26T02:04:49.955Z,27.18
2018-07-26T02:05:30.460Z,27.13
2018-07-26T02:06:10.950Z,27.25
2018-07-26T02:06:51.430Z,27.18
2018-07-26T02:07:31.986Z,27.25
2018-07-26T02:08:12.432Z,27.24
2018-07-26T02:08:52.933Z,27.24
2018-07-26T02:09:33.417Z,27.28
2018-07-26T02:10:13.931Z,27.25
2018-07-26T02:10:54.419Z,27.22
2018-07-26T02:11:34.915Z,27.27
2018-07-26T02:12:15.435Z,27.28
2018-07-26T02:12:55.929Z,27.28
2018-07-26T02:13:36.456Z,27.25
2018-07-26T02:14:16.917Z,27.27
2018-07-26T02:14:57.421Z,27.24
2018-07-26T02:15:37.872Z,27.24
2018-07-26T02:16:18.413Z,27.24
2018-07-26T02:16:58.918Z,27.24
2018-07-26T02:17:39.395Z,27.17
2018-07-26T02:18:19.873Z,27.22
2018-07-26T02:19:00.429Z,27.27
2018-07-26T02:19:42.730Z,27.18
2018-07-26T02:20:23.222Z,27.17
2018-07-26T02:21:03.666Z,27.21
2018-07-26T02:21:44.173Z,27.1
2018-07-26T02:22:24.662Z,27.13
2018-07-26T02:23:05.173Z,27.25
2018-07-26T02:23:45.628Z,27.12
2018-07-26T02:24:26.153Z,27.18
2018-07-26T02:25:06.648Z,27.13
2018-07-26T02:25:47.193Z,27.19
2018-07-26T02:26:27.749Z,27.09
2018-07-26T02:27:08.172Z,27.02
2018-07-26T02:27:48.700Z,27.12
2018-07-26T02:28:29.234Z,27.12
2018-07-26T02:29:09.717Z,27.06
2018-07-26T02:29:50.204Z,27.17
2018-07-26T02:30:30.729Z,27.17
2018-07-26T02:31:11.297Z,27.24
2018-07-26T02:31:51.832Z,27.17
2018-07-26T02:32:32.312Z,27.24
2018-07-26T02:33:12.816Z,27.17
2018-07-26T02:33:53.353Z,27.17
2018-07-26T02:34:33.826Z,27.18
2018-07-26T02:35:14.351Z,27.17
2018-07-26T02:35:54.839Z,27.17
2018-07-26T02:36:35.855Z,27.04
2018-07-26T02:37:16.319Z,27.06
2018-07-26T02:37:56.822Z,27.09
2018-07-26T02:38:37.307Z,27.14
2018-07-26T02:39:17.811Z,27.14
2018-07-26T02:39:58.320Z,27.12
2018-07-26T02:40:38.870Z,27.18
2018-07-26T02:41:19.359Z,27.1
2018-07-26T02:41:59.897Z,27.06
2018-07-26T02:42:40.386Z,27.07
2018-07-26T02:43:20.896Z,27.18
2018-07-26T02:44:01.370Z,27.09
2018-07-26T02:44:41.933Z,27.14
2018-07-26T02:45:22.373Z,27.1
2018-07-26T02:46:02.881Z,27.03
2018-07-26T02:46:43.379Z,27.06
2018-07-26T02:47:23.837Z,27.17
2018-07-26T02:48:04.361Z,27.09
2018-07-26T02:48:44.866Z,27.04
2018-07-26T02:49:25.314Z,26.99
2018-07-26T02:50:05.870Z,26.97
2018-07-26T02:50:46.317Z,26.85
2018-07-26T02:51:26.800Z,26.85
2018-07-26T02:52:07.313Z,26.95
2018-07-26T02:52:47.801Z,26.89
2018-07-26T02:53:28.310Z,26.85
2018-07-26T02:54:08.805Z,26.95
2018-07-26T02:54:49.325Z,26.94
2018-07-26T02:55:29.761Z,26.92
2018-07-26T02:56:10.265Z,27.02
2018-07-26T02:56:50.745Z,27
2018-07-26T02:57:31.239Z,26.95
2018-07-26T02:58:11.749Z,26.89
2018-07-26T02:58:52.297Z,26.99
2018-07-26T02:59:32.718Z,26.94
2018-07-26T03:00:13.284Z,26.94
2018-07-26T03:00:53.708Z,26.92
2018-07-26T03:01:34.206Z,26.87
2018-07-26T03:02:14.692Z,26.92
2018-07-26T03:02:55.183Z,26.84
2018-07-26T03:03:35.705Z,26.91
2018-07-26T03:04:16.220Z,26.89
2018-07-26T03:04:56.683Z,26.88
2018-07-26T03:05:37.196Z,26.91
2018-07-26T03:06:17.690Z,26.89
2018-07-26T03:06:58.171Z,26.87
2018-07-26T03:07:38.682Z,26.88
2018-07-26T03:08:19.148Z,26.89
2018-07-26T03:08:59.639Z,26.87
2018-07-26T03:09:40.156Z,26.77
2018-07-26T03:10:20.658Z,26.8
2018-07-26T03:11:01.142Z,26.8
2018-07-26T03:11:41.653Z,26.73
2018-07-26T03:12:22.165Z,26.72
2018-07-26T03:13:02.651Z,26.67
2018-07-26T03:13:43.174Z,26.62
2018-07-26T03:14:23.652Z,26.7
2018-07-26T03:15:04.151Z,26.76
2018-07-26T03:15:44.630Z,26.8
2018-07-26T03:16:25.143Z,26.7
2018-07-26T03:17:05.651Z,26.7
2018-07-26T03:17:46.113Z,26.7
2018-07-26T03:18:26.612Z,26.77
2018-07-26T03:19:07.131Z,26.76
2018-07-26T03:19:47.568Z,26.69
2018-07-26T03:20:28.095Z,26.69
2018-07-26T03:21:08.554Z,26.69
2018-07-26T03:21:49.080Z,26.75
2018-07-26T03:22:29.581Z,26.65
2018-07-26T03:23:10.098Z,26.69
2018-07-26T03:23:50.537Z,26.69
2018-07-26T03:24:31.026Z,26.73
2018-07-26T03:25:11.572Z,26.66
2018-07-26T03:25:52.070Z,26.69
2018-07-26T03:26:32.531Z,26.7
2018-07-26T03:27:13.085Z,26.67
2018-07-26T03:27:53.536Z,26.58
2018-07-26T03:28:34.081Z,26.67
2018-07-26T03:29:14.611Z,26.69
2018-07-26T03:29:55.120Z,26.72
2018-07-26T03:30:35.609Z,26.73
2018-07-26T03:31:16.102Z,26.69
2018-07-26T03:31:56.584Z,26.73
2018-07-26T03:32:37.106Z,26.69
2018-07-26T03:33:17.610Z,26.73
2018-07-26T03:33:58.127Z,26.7
2018-07-26T03:34:38.605Z,26.69
2018-07-26T03:35:19.111Z,26.72
2018-07-26T03:35:59.636Z,26.75
2018-07-26T03:36:40.110Z,26.73
2018-07-26T03:37:20.609Z,26.66
2018-07-26T03:38:01.098Z,26.82
2018-07-26T03:38:41.610Z,26.7
2018-07-26T03:39:22.163Z,26.7
2018-07-26T03:40:02.658Z,26.7
2018-07-26T03:40:43.152Z,26.69
2018-07-26T03:41:23.636Z,26.73
2018-07-26T03:42:04.104Z,26.67
2018-07-26T03:42:44.624Z,26.72
2018-07-26T03:43:25.153Z,26.69
2018-07-26T03:44:05.644Z,26.57
2018-07-26T03:44:46.072Z,26.57
2018-07-26T03:45:26.567Z,26.69
2018-07-26T03:46:07.145Z,26.72
2018-07-26T03:46:47.586Z,26.69
2018-07-26T03:47:28.086Z,26.72
2018-07-26T03:48:08.591Z,26.7
2018-07-26T03:48:49.075Z,26.75
2018-07-26T03:49:29.593Z,26.69
2018-07-26T03:50:10.058Z,26.6
2018-07-26T03:50:50.569Z,26.65
2018-07-26T03:51:31.071Z,26.58
2018-07-26T03:52:11.557Z,26.62
2018-07-26T03:52:52.150Z,26.65
2018-07-26T03:53:32.533Z,26.63
2018-07-26T03:54:13.045Z,26.6
2018-07-26T03:54:53.545Z,26.58
2018-07-26T03:55:34.039Z,26.69
2018-07-26T03:56:14.505Z,26.6
2018-07-26T03:56:55.046Z,26.58
2018-07-26T03:57:35.519Z,26.62
2018-07-26T03:58:16.002Z,26.57
2018-07-26T03:58:56.519Z,26.58
2018-07-26T03:59:36.938Z,26.55
2018-07-26T04:00:17.447Z,26.58
2018-07-26T04:00:57.957Z,26.72
2018-07-26T04:01:38.444Z,26.54
2018-07-26T04:02:18.900Z,26.66
2018-07-26T04:02:59.418Z,26.62
2018-07-26T04:03:39.928Z,26.67
2018-07-26T04:04:20.409Z,26.7
2018-07-26T04:05:00.931Z,26.55
2018-07-26T04:05:41.425Z,26.57
2018-07-26T04:06:21.940Z,26.57
2018-07-26T04:07:02.427Z,26.54
2018-07-26T04:07:42.890Z,26.57
2018-07-26T04:08:23.351Z,26.4
2018-07-26T04:09:03.863Z,26.35
2018-07-26T04:09:44.377Z,26.47
2018-07-26T04:10:24.922Z,26.45
2018-07-26T04:11:05.390Z,26.4
2018-07-26T04:11:45.878Z,26.33
2018-07-26T04:12:26.377Z,26.39
2018-07-26T04:13:06.866Z,26.3
2018-07-26T04:13:47.457Z,26.37
2018-07-26T04:14:27.943Z,26.35
2018-07-26T04:15:08.417Z,26.33
2018-07-26T04:15:48.929Z,26.26
2018-07-26T04:16:29.399Z,26.23
2018-07-26T04:17:10.027Z,26.3
2018-07-26T04:17:54.387Z,26.12
2018-07-26T04:18:34.860Z,26.23
2018-07-26T04:19:15.401Z,26.23
2018-07-26T04:19:55.876Z,26.3
2018-07-26T04:20:36.385Z,26.2
2018-07-26T04:21:16.873Z,26.33
2018-07-26T04:21:57.364Z,26.37
2018-07-26T04:22:37.863Z,26.28
2018-07-26T04:23:18.408Z,26.33
2018-07-26T04:23:58.902Z,26.36
2018-07-26T04:24:39.369Z,26.47
2018-07-26T04:25:19.887Z,26.48
2018-07-26T04:26:00.380Z,26.54
2018-07-26T04:26:40.838Z,26.55
2018-07-26T04:27:21.398Z,26.57
2018-07-26T04:28:01.847Z,26.51
2018-07-26T04:28:42.349Z,26.51
2018-07-26T04:29:22.839Z,26.39
2018-07-26T04:30:03.363Z,26.43
2018-07-26T04:30:43.833Z,26.45
2018-07-26T04:31:24.366Z,26.44
2018-07-26T04:32:05.001Z,26.44
2018-07-26T04:32:45.386Z,26.43
2018-07-26T04:33:25.835Z,26.43
2018-07-26T04:34:06.329Z,26.33
2018-07-26T04:34:46.873Z,26.43
2018-07-26T04:35:27.401Z,26.37
2018-07-26T04:36:07.826Z,26.37
2018-07-26T04:36:48.317Z,26.26
2018-07-26T04:37:28.865Z,26.44
2018-07-26T04:38:09.324Z,26.39
2018-07-26T04:38:49.814Z,26.48
2018-07-26T04:39:30.321Z,26.32
2018-07-26T04:40:10.868Z,26.43
2018-07-26T04:40:51.318Z,26.44
2018-07-26T04:41:31.878Z,26.57
2018-07-26T04:42:12.313Z,26.52
2018-07-26T04:42:52.816Z,26.51
2018-07-26T04:43:33.361Z,26.52
2018-07-26T04:44:13.820Z,26.58
2018-07-26T04:44:54.357Z,26.58
2018-07-26T04:45:34.816Z,26.5
2018-07-26T04:46:15.344Z,26.55
2018-07-26T04:46:55.828Z,26.58
2018-07-26T04:47:36.348Z,26.67
2018-07-26T04:48:16.868Z,26.66
2018-07-26T04:48:57.380Z,26.72
2018-07-26T04:49:37.905Z,26.7
2018-07-26T04:50:18.411Z,26.69
2018-07-26T04:50:58.916Z,26.66
2018-07-26T04:51:39.400Z,26.67
2018-07-26T04:52:20.171Z,26.66
2018-07-26T04:53:00.712Z,26.67
2018-07-26T04:53:41.169Z,26.67
2018-07-26T04:54:21.710Z,26.69
2018-07-26T04:55:02.240Z,26.77
2018-07-26T04:55:42.759Z,26.85
2018-07-26T04:56:23.194Z,26.73
2018-07-26T04:57:03.726Z,26.55
2018-07-26T04:57:44.212Z,26.58
2018-07-26T04:58:24.696Z,26.72
2018-07-26T04:59:05.212Z,26.7
2018-07-26T04:59:45.708Z,26.87
2018-07-26T05:00:26.215Z,26.82
2018-07-26T05:01:06.705Z,26.87
2018-07-26T05:01:47.164Z,26.77
2018-07-26T05:02:27.660Z,26.77
2018-07-26T05:03:08.170Z,26.85
2018-07-26T05:03:48.717Z,26.87
2018-07-26T05:04:29.215Z,26.76
2018-07-26T05:05:09.706Z,26.65
2018-07-26T05:05:50.179Z,26.72
2018-07-26T05:06:30.724Z,26.69
2018-07-26T05:07:11.186Z,26.92
2018-07-26T05:07:51.812Z,26.84
2018-07-26T05:08:32.316Z,26.89
2018-07-26T05:09:12.919Z,26.85
2018-07-26T05:09:53.359Z,26.85
2018-07-26T05:10:34.144Z,26.94
2018-07-26T05:11:14.664Z,26.94
2018-07-26T05:11:57.248Z,27.09
2018-07-26T05:12:37.784Z,27.17
2018-07-26T05:13:18.252Z,27.24
2018-07-26T05:13:58.749Z,27.27
2018-07-26T05:14:39.278Z,27.31
2018-07-26T05:15:19.826Z,27.17
2018-07-26T05:16:00.171Z,27.07
2018-07-26T05:16:40.826Z,27.1
2018-07-26T05:17:21.401Z,27.02
2018-07-26T05:18:01.857Z,27.02
2018-07-26T05:18:42.295Z,26.92
2018-07-26T05:19:22.827Z,26.99
2018-07-26T05:20:03.311Z,27.04
2018-07-26T05:20:43.833Z,27.07
2018-07-26T05:21:24.284Z,27.04
2018-07-26T05:22:04.821Z,27.07
2018-07-26T05:22:45.353Z,27.18
2018-07-26T05:23:25.842Z,27.12
2018-07-26T05:24:06.404Z,27.14
2018-07-26T05:24:47.027Z,27.03
2018-07-26T05:25:27.441Z,27.09
2018-07-26T05:26:07.992Z,27.13
2018-07-26T05:26:48.436Z,27.18
2018-07-26T05:27:29.002Z,27.19
2018-07-26T05:28:09.544Z,27.06
2018-07-26T05:28:49.992Z,27.12
2018-07-26T05:29:30.711Z,27.12
2018-07-26T05:30:11.235Z,27.17
2018-07-26T05:30:51.662Z,27.09
2018-07-26T05:31:32.191Z,27.06
2018-07-26T05:32:12.660Z,27.09
2018-07-26T05:32:53.157Z,27.17
2018-07-26T05:33:33.695Z,27.14
2018-07-26T05:34:14.400Z,27.25
2018-07-26T05:34:54.845Z,27.24
2018-07-26T05:35:35.323Z,27.21
2018-07-26T05:36:15.931Z,27.25
2018-07-26T05:36:56.490Z,27.18
2018-07-26T05:37:37.063Z,27.24
2018-07-26T05:38:17.491Z,27.18
2018-07-26T05:38:58.158Z,27.06
2018-07-26T05:39:38.651Z,27.1
2018-07-26T05:40:19.080Z,27.19
2018-07-26T05:40:59.620Z,27.17
2018-07-26T05:41:40.070Z,27.17
2018-07-26T05:42:20.821Z,27.12
2018-07-26T05:43:01.356Z,27.03
2018-07-26T05:43:41.922Z,27.06
2018-07-26T05:44:22.402Z,27.06
2018-07-26T05:45:02.850Z,26.97
2018-07-26T05:45:43.352Z,26.97
2018-07-26T05:46:23.893Z,26.88
2018-07-26T05:47:04.444Z,26.91
2018-07-26T05:47:44.936Z,26.91
2018-07-26T05:48:25.389Z,27.04
2018-07-26T05:49:05.902Z,27.06
2018-07-26T05:49:46.422Z,27.12
2018-07-26T05:50:26.904Z,27.04
2018-07-26T05:51:07.395Z,27.07
2018-07-26T05:51:47.914Z,27.06
2018-07-26T05:52:28.439Z,27.14
2018-07-26T05:53:08.904Z,27.21
2018-07-26T05:53:49.592Z,27.22
2018-07-26T05:54:30.120Z,27.13
2018-07-26T05:55:10.643Z,27.1
2018-07-26T05:55:51.101Z,27.22
2018-07-26T05:56:31.694Z,27.22
2018-07-26T05:57:12.161Z,27.32
2018-07-26T05:57:52.721Z,27.34
2018-07-26T05:58:33.229Z,27.39
2018-07-26T05:59:13.697Z,27.55
2018-07-26T05:59:54.204Z,27.75
2018-07-26T06:00:36.558Z,28.09
2018-07-26T06:01:17.106Z,28.27
2018-07-26T06:01:57.566Z,28.41
2018-07-26T06:02:38.051Z,28.56
2018-07-26T06:03:18.523Z,28.73
2018-07-26T06:03:59.069Z,28.88
2018-07-26T06:04:39.559Z,28.95
2018-07-26T06:05:20.081Z,29.04
2018-07-26T06:06:00.660Z,29.12
2018-07-26T06:06:41.233Z,29.3
2018-07-26T06:07:21.915Z,29.36
2018-07-26T06:08:02.458Z,29.37
2018-07-26T06:08:42.927Z,29.53
2018-07-26T06:09:23.424Z,29.52
2018-07-26T06:10:04.070Z,29.49
2018-07-26T06:10:44.523Z,29.67
2018-07-26T06:11:25.038Z,29.64
2018-07-26T06:12:05.576Z,29.7
2018-07-26T06:12:46.057Z,29.85
2018-07-26T06:13:26.534Z,29.86
2018-07-26T06:14:07.011Z,29.83
2018-07-26T06:14:47.493Z,29.9
2018-07-26T06:15:28.035Z,29.94
2018-07-26T06:16:08.576Z,29.98
2018-07-26T06:16:49.092Z,30.08
2018-07-26T06:17:29.624Z,30.04
2018-07-26T06:18:10.098Z,30.01
2018-07-26T06:18:50.534Z,30.15
2018-07-26T06:19:31.081Z,30.11
2018-07-26T06:20:11.543Z,30.26
2018-07-26T06:20:52.047Z,30.22
2018-07-26T06:21:32.512Z,30.31
2018-07-26T06:22:13.020Z,30.51
2018-07-26T06:22:53.527Z,30.38
2018-07-26T06:23:34.075Z,30.43
2018-07-26T06:24:14.533Z,30.38
2018-07-26T06:24:55.041Z,30.34
2018-07-26T06:25:35.614Z,30.2
2018-07-26T06:26:16.092Z,30.23
2018-07-26T06:26:56.568Z,30.17
2018-07-26T06:27:37.085Z,30.2
2018-07-26T06:28:17.695Z,30.17
2018-07-26T06:28:58.143Z,30.2
2018-07-26T06:29:38.563Z,30.27
2018-07-26T06:30:19.094Z,30.19
2018-07-26T06:30:59.577Z,30.2
2018-07-26T06:31:40.145Z,30.2
2018-07-26T06:32:21.291Z,30.16
2018-07-26T06:33:01.658Z,30.04
2018-07-26T06:33:42.235Z,29.83
2018-07-26T06:34:22.670Z,29.87
2018-07-26T06:35:03.183Z,30
2018-07-26T06:35:43.694Z,29.95
2018-07-26T06:36:24.201Z,30.01
2018-07-26T06:37:04.690Z,30.05
2018-07-26T06:37:45.236Z,29.97
2018-07-26T06:38:25.706Z,30.07
2018-07-26T06:39:06.226Z,30.17
2018-07-26T06:39:46.767Z,30.16
2018-07-26T06:40:27.306Z,30.13
2018-07-26T06:41:07.806Z,30.19
2018-07-26T06:41:48.254Z,30.11
2018-07-26T06:42:28.787Z,30.05
2018-07-26T06:43:09.280Z,30.05
2018-07-26T06:43:49.802Z,30.17
2018-07-26T06:44:30.312Z,30.24
2018-07-26T06:45:10.791Z,30.2
2018-07-26T06:45:51.244Z,30.31
2018-07-26T06:46:31.801Z,30.34
2018-07-26T06:47:12.265Z,30.37
2018-07-26T06:47:52.800Z,30.47
2018-07-26T06:48:33.255Z,30.46
2018-07-26T06:49:13.818Z,30.39
2018-07-26T06:49:54.385Z,30.46
2018-07-26T06:50:34.798Z,30.51
2018-07-26T06:51:15.331Z,30.49
2018-07-26T06:51:55.855Z,30.42
2018-07-26T06:52:36.353Z,30.38
2018-07-26T06:53:18.794Z,30.46
2018-07-26T06:53:59.299Z,30.62
2018-07-26T06:54:39.997Z,30.67
2018-07-26T06:55:20.395Z,30.67
2018-07-26T06:56:01.042Z,30.69
2018-07-26T06:56:41.539Z,30.72
2018-07-26T06:57:22.033Z,30.89
2018-07-26T06:58:02.528Z,31.02
2018-07-26T06:58:43.067Z,31.01
2018-07-26T06:59:23.600Z,31.09
2018-07-26T07:00:04.135Z,31.16
2018-07-26T07:00:44.880Z,31.21
2018-07-26T07:01:25.302Z,31.2
2018-07-26T07:02:05.817Z,31.19
2018-07-26T07:02:46.354Z,31.35
2018-07-26T07:03:26.880Z,31.23
2018-07-26T07:04:07.360Z,31.19
2018-07-26T07:04:47.884Z,31.36
2018-07-26T07:05:28.353Z,31.09
2018-07-26T07:06:08.871Z,31.35
2018-07-26T07:06:49.363Z,31.2
2018-07-26T07:07:29.896Z,31.2
2018-07-26T07:08:10.376Z,31.2
2018-07-26T07:08:50.894Z,31.16
2018-07-26T07:09:31.411Z,31.23
2018-07-26T07:10:12.071Z,31.28
2018-07-26T07:10:52.421Z,31.34
2018-07-26T07:11:32.945Z,31.44
2018-07-26T07:12:13.483Z,31.35
2018-07-26T07:12:53.952Z,31.38
2018-07-26T07:13:34.389Z,31.48
2018-07-26T07:14:14.873Z,31.48
2018-07-26T07:14:55.446Z,31.58
2018-07-26T07:15:35.911Z,31.66
2018-07-26T07:16:16.382Z,31.51
2018-07-26T07:16:56.917Z,31.57
2018-07-26T07:17:37.470Z,31.58
2018-07-26T07:18:17.970Z,31.54
2018-07-26T07:18:58.457Z,31.61
2018-07-26T07:19:38.987Z,31.68
2018-07-26T07:20:19.474Z,31.62
2018-07-26T07:20:59.993Z,31.58
2018-07-26T07:21:40.489Z,31.58
2018-07-26T07:22:21.029Z,31.66
2018-07-26T07:23:01.493Z,31.56
2018-07-26T07:23:42.022Z,31.56
2018-07-26T07:24:22.493Z,31.66
2018-07-26T07:25:03.009Z,31.61
2018-07-26T07:25:43.547Z,31.63
2018-07-26T07:26:24.028Z,31.48
2018-07-26T07:27:04.527Z,31.43
2018-07-26T07:27:45.071Z,31.56
2018-07-26T07:28:25.633Z,31.47
2018-07-26T07:29:06.060Z,31.53
2018-07-26T07:29:46.593Z,31.53
2018-07-26T07:30:27.129Z,31.65
2018-07-26T07:31:07.618Z,31.7
2018-07-26T07:31:48.095Z,31.63
2018-07-26T07:32:28.602Z,31.54
2018-07-26T07:33:09.183Z,31.61
2018-07-26T07:33:49.590Z,31.47
2018-07-26T07:34:30.123Z,31.61
2018-07-26T07:35:10.620Z,31.7
2018-07-26T07:35:51.085Z,31.63
2018-07-26T07:36:31.616Z,31.63
2018-07-26T07:37:12.083Z,31.68
2018-07-26T07:37:52.527Z,31.41
2018-07-26T07:38:33.102Z,31.36
2018-07-26T07:39:13.630Z,31.44
2018-07-26T07:39:54.107Z,31.5
2018-07-26T07:40:34.607Z,31.56
2018-07-26T07:41:15.154Z,31.58
2018-07-26T07:41:55.706Z,31.66
2018-07-26T07:42:36.136Z,31.68
2018-07-26T07:43:16.626Z,31.56
2018-07-26T07:43:57.145Z,31.61
2018-07-26T07:44:37.711Z,31.56
2018-07-26T07:45:18.206Z,31.65
2018-07-26T07:45:58.629Z,31.76
2018-07-26T07:46:39.183Z,31.8
2018-07-26T07:47:19.782Z,31.88
2018-07-26T07:48:00.180Z,31.73
2018-07-26T07:48:40.758Z,31.72
2018-07-26T07:49:21.206Z,31.65
2018-07-26T07:50:01.697Z,31.66
2018-07-26T07:50:42.319Z,31.63
2018-07-26T07:51:22.819Z,31.72
2018-07-26T07:52:03.370Z,31.69
2018-07-26T07:52:43.935Z,31.66
2018-07-26T07:53:24.520Z,31.69
2018-07-26T07:54:05.052Z,31.69
2018-07-26T07:54:45.532Z,31.56
2018-07-26T07:55:26.025Z,31.68
2018-07-26T07:56:06.542Z,31.73
2018-07-26T07:56:47.029Z,31.72
2018-07-26T07:57:27.551Z,31.69
2018-07-26T07:58:08.674Z,31.63
2018-07-26T07:58:49.190Z,31.57
2018-07-26T07:59:29.771Z,31.66
2018-07-26T08:00:10.191Z,31.65
2018-07-26T08:00:50.713Z,31.66
2018-07-26T08:01:31.226Z,31.68
2018-07-26T08:02:11.686Z,31.58
2018-07-26T08:02:52.210Z,31.68
2018-07-26T08:03:32.685Z,31.47
2018-07-26T08:04:13.214Z,31.58
2018-07-26T08:04:53.687Z,31.57
2018-07-26T08:05:34.214Z,31.68
2018-07-26T08:06:14.738Z,31.61
2018-07-26T08:06:55.204Z,31.65
2018-07-26T08:07:35.819Z,31.53
2018-07-26T08:08:16.323Z,31.61
2018-07-26T08:08:56.857Z,31.57
2018-07-26T08:09:37.364Z,31.57
2018-07-26T08:10:17.906Z,31.69
2018-07-26T08:10:58.417Z,31.69
2018-07-26T08:11:38.915Z,31.54
2018-07-26T08:12:19.483Z,31.61
2018-07-26T08:12:59.914Z,31.63
2018-07-26T08:13:40.617Z,31.7
2018-07-26T08:14:21.130Z,31.62
2018-07-26T08:15:01.585Z,31.72
2018-07-26T08:15:42.180Z,31.66
2018-07-26T08:16:22.609Z,31.69
2018-07-26T08:17:03.081Z,31.69
2018-07-26T08:17:43.607Z,31.68
2018-07-26T08:18:24.079Z,31.61
2018-07-26T08:19:04.569Z,31.63
2018-07-26T08:19:45.095Z,31.69
2018-07-26T08:20:25.593Z,31.66
2018-07-26T08:21:06.133Z,31.54
2018-07-26T08:21:46.608Z,31.63
2018-07-26T08:22:27.142Z,31.69
2018-07-26T08:23:07.614Z,31.65
2018-07-26T08:23:48.122Z,31.65
2018-07-26T08:24:28.628Z,31.62
2018-07-26T08:25:09.157Z,31.58
2018-07-26T08:25:49.642Z,31.56
2018-07-26T08:26:30.179Z,31.56
2018-07-26T08:27:10.638Z,31.56
2018-07-26T08:27:51.193Z,31.5
2018-07-26T08:28:31.672Z,31.46
2018-07-26T08:29:12.181Z,31.36
2018-07-26T08:29:52.728Z,31.48
2018-07-26T08:30:33.182Z,31.5
2018-07-26T08:31:13.755Z,31.66
2018-07-26T08:31:54.262Z,31.51
2018-07-26T08:32:34.746Z,31.44
2018-07-26T08:33:15.216Z,31.51
2018-07-26T08:33:55.758Z,31.53
2018-07-26T08:34:36.262Z,31.43
2018-07-26T08:35:16.764Z,31.44
2018-07-26T08:35:57.255Z,31.41
2018-07-26T08:36:37.913Z,31.53
2018-07-26T08:37:18.364Z,31.5
2018-07-26T08:37:58.893Z,31.38
2018-07-26T08:38:39.363Z,31.41
2018-07-26T08:39:19.859Z,31.32
2018-07-26T08:40:00.358Z,31.43
2018-07-26T08:40:40.857Z,31.39
2018-07-26T08:41:21.506Z,31.5
2018-07-26T08:42:01.954Z,31.38
2018-07-26T08:42:42.460Z,31.39
2018-07-26T08:43:22.985Z,31.25
2018-07-26T08:44:03.460Z,31.35
2018-07-26T08:44:43.984Z,31.36
2018-07-26T08:45:24.456Z,31.43